Time;durP1;ratioP1;P1;durP2;ratioP2;P2;SDS_P1;SDS_P2;PMS_P1;PMS_P2;Temp;Humidity;BMP_temperature;BMP_pressure;BME280_temperature;BME280_humidity;BME280_pressure;Samples;Min_cycle;Max_cycle;Signal;HPM_P1;HPM_P2
2022/09/22 00:00:26;;;;;;;5.00;3.47;;;;;;;-145.18;100.00;46660.41;6213337;23;20392;-74
2022/09/22 00:02:57;;;;;;;3.60;2.53;;;;;;;-145.18;100.00;46664.31;6213457;23;20005;-74
2022/09/22 00:05:23;;;;;;;4.90;1.97;;;;;;;-145.18;100.00;46670.16;6213295;23;20488;-74
2022/09/22 00:07:49;;;;;;;3.63;1.33;;;;;;;-145.18;100.00;46662.34;6212081;23;20238;-74
2022/09/22 00:10:14;;;;;;;5.00;1.60;;;;;;;-145.18;100.00;46664.31;6213290;23;20315;-74
2022/09/22 00:12:39;;;;;;;4.30;1.93;;;;;;;-145.18;100.00;46666.25;6213665;23;20015;-74
2022/09/22 00:15:05;;;;;;;4.60;2.40;;;;;;;-145.18;100.00;46670.16;6213056;23;20012;-74
2022/09/22 00:17:31;;;;;;;6.40;3.10;;;;;;;-145.18;100.00;46668.22;6213395;23;20150;-74
2022/09/22 00:19:56;;;;;;;4.97;3.30;;;;;;;-145.18;100.00;46674.06;6213689;23;20250;-74
2022/09/22 00:22:23;;;;;;;11.80;2.40;;;;;;;-145.18;100.00;46672.13;6213233;23;20020;-73
2022/09/22 00:24:48;;;;;;;7.50;2.57;;;;;;;-145.18;100.00;46668.22;6213534;23;20342;-74
2022/09/22 00:27:13;;;;;;;3.23;2.60;;;;;;;-145.18;100.00;46670.16;6213223;23;20302;-74
2022/09/22 00:29:39;;;;;;;3.43;1.70;;;;;;;-145.18;100.00;46670.16;6212864;23;20032;-74
2022/09/22 00:32:05;;;;;;;5.97;3.27;;;;;;;-145.18;100.00;46664.31;6213186;23;20019;-74
2022/09/22 00:34:30;;;;;;;7.37;3.00;;;;;;;-145.18;100.00;46664.31;6213409;23;20076;-74
2022/09/22 00:36:55;;;;;;;9.93;3.77;;;;;;;-145.18;100.00;46672.13;6213516;23;19996;-74
2022/09/22 00:39:21;;;;;;;7.97;3.20;;;;;;;-145.18;100.00;46664.31;6212998;23;20008;-74
2022/09/22 00:41:49;;;;;;;5.77;3.27;;;;;;;-145.18;100.00;46668.22;6213414;23;20070;-74
2022/09/22 00:44:20;;;;;;;7.37;3.10;;;;;;;-145.18;100.00;46662.34;6213269;23;20445;-74
2022/09/22 00:47:00;;;;;;;4.63;2.60;;;;;;;-145.18;100.00;46664.31;6213097;23;20249;-74
2022/09/22 00:49:46;;;;;;;9.47;3.20;;;;;;;-145.18;100.00;46664.31;6213079;23;20227;-74
2022/09/22 00:52:17;;;;;;;4.30;2.70;;;;;;;-145.18;100.00;46660.41;6212813;23;20332;-74
2022/09/22 00:54:42;;;;;;;3.13;2.30;;;;;;;-145.18;100.00;46662.34;6213509;23;20226;-74
2022/09/22 00:57:15;;;;;;;7.30;3.53;;;;;;;-145.18;100.00;46664.31;6212924;23;20261;-74
2022/09/22 00:59:42;;;;;;;6.10;2.83;;;;;;;-145.18;100.00;46656.50;6213044;23;20468;-74
2022/09/22 01:02:07;;;;;;;7.47;3.33;;;;;;;-145.18;100.00;46662.34;6212561;23;20555;-74
2022/09/22 01:04:33;;;;;;;4.30;2.80;;;;;;;-145.18;100.00;46658.44;6213369;23;20301;-74
2022/09/22 01:07:00;;;;;;;8.70;2.80;;;;;;;-145.18;100.00;46662.34;6213393;23;20319;-74
2022/09/22 01:09:27;;;;;;;3.00;2.20;;;;;;;-145.18;100.00;46664.31;6212992;23;20012;-74
2022/09/22 01:11:52;;;;;;;4.50;2.03;;;;;;;-145.18;100.00;46656.50;6212716;23;20727;-74
2022/09/22 01:14:27;;;;;;;3.90;2.90;;;;;;;-145.18;100.00;46662.34;6212867;23;20234;-74
2022/09/22 01:16:58;;;;;;;4.03;2.10;;;;;;;-145.18;100.00;46658.44;6213187;23;20418;-74
2022/09/22 01:19:52;;;;;;;7.40;2.10;;;;;;;-145.18;100.00;46658.44;6212515;23;20916;-74
2022/09/22 01:22:48;;;;;;;5.10;2.30;;;;;;;-145.18;100.00;46658.44;6212613;23;20223;-74
2022/09/22 01:25:14;;;;;;;4.97;2.78;;;;;;;-145.18;100.00;46656.50;6212522;23;20218;-74
2022/09/22 01:27:51;;;;;;;6.13;2.50;;;;;;;-145.18;100.00;46660.41;6213041;23;20039;-74
2022/09/22 01:30:26;;;;;;;4.80;2.47;;;;;;;-145.18;100.00;46658.44;6212187;23;20012;-74
2022/09/22 01:33:09;;;;;;;4.57;3.17;;;;;;;-145.18;100.00;46656.50;6212884;23;20691;-74
2022/09/22 01:36:08;;;;;;;4.67;2.50;;;;;;;-145.18;100.00;46660.41;6212531;23;20218;-74
2022/09/22 01:39:04;;;;;;;10.30;3.10;;;;;;;-145.18;100.00;46660.41;6212650;23;20234;-73
2022/09/22 01:41:50;;;;;;;4.50;3.42;;;;;;;-145.18;100.00;46662.34;6212301;23;20222;-73
2022/09/22 01:44:36;;;;;;;10.93;2.95;;;;;;;-145.18;100.00;46660.41;6212845;23;20015;-73
2022/09/22 01:47:19;;;;;;;12.05;4.82;;;;;;;-145.18;100.00;46662.34;6212648;23;20009;-74
2022/09/22 01:49:50;;;;;;;6.17;3.97;;;;;;;-145.18;100.00;46666.25;6212487;23;20000;-74
2022/09/22 01:52:21;;;;;;;8.27;4.60;;;;;;;-145.18;100.00;46664.31;6212327;23;20226;-74
2022/09/22 01:54:54;;;;;;;6.20;3.53;;;;;;;-145.18;100.00;46662.34;6211603;23;20715;-73
2022/09/22 01:57:27;;;;;;;7.03;4.30;;;;;;;-145.18;100.00;46664.31;6212473;23;20233;-73
2022/09/22 01:59:57;;;;;;;6.47;4.13;;;;;;;-145.18;100.00;46662.34;6212374;23;20222;-73
2022/09/22 02:02:30;;;;;;;7.80;5.30;;;;;;;-145.18;100.00;46664.31;6188150;22;20666;-74
2022/09/22 02:05:00;;;;;;;9.73;4.37;;;;;;;-145.18;100.00;46666.25;6238987;23;20225;-73
2022/09/22 02:07:37;;;;;;;4.57;3.07;;;;;;;-145.18;100.00;46654.53;6242584;23;20237;-74
2022/09/22 02:10:11;;;;;;;4.03;2.70;;;;;;;-145.18;100.00;46660.41;6243144;23;20229;-73
2022/09/22 02:12:37;;;;;;;5.93;3.10;;;;;;;-145.18;100.00;46660.41;6242383;23;20295;-74
2022/09/22 02:15:58;;;;;;;8.53;3.50;;;;;;;-145.18;100.00;46656.50;6243622;23;20261;-74
2022/09/22 02:17:51;;;;;;;4.07;3.07;;;;;;;-145.18;100.00;46662.34;6242065;23;20316;-74
2022/09/22 02:20:17;;;;;;;3.50;2.20;;;;;;;-145.18;100.00;46654.53;6243349;23;20606;-74
2022/09/22 02:22:43;;;;;;;3.67;1.50;;;;;;;-145.18;100.00;46666.25;6215953;23;20682;-74
2022/09/22 02:25:09;;;;;;;2.47;1.70;;;;;;;-145.18;100.00;46656.50;6243460;23;20230;-74
2022/09/22 02:27:35;;;;;;;3.07;1.90;;;;;;;-145.18;100.00;46666.25;6242826;23;20077;-74
2022/09/22 02:30:03;;;;;;;6.30;2.50;;;;;;;-145.18;100.00;46664.31;6243384;23;20582;-74
2022/09/22 02:32:29;;;;;;;4.93;3.70;;;;;;;-145.18;100.00;46660.41;6242435;23;20271;-74
2022/09/22 02:34:55;;;;;;;9.57;5.30;;;;;;;-145.18;100.00;46664.31;6242715;23;20317;-74
2022/09/22 02:37:45;;;;;;;6.10;3.10;;;;;;;-145.18;100.00;46662.34;6242639;23;20236;-74
2022/09/22 02:40:25;;;;;;;8.50;6.00;;;;;;;-145.18;100.00;46660.41;6242916;23;20209;-74
2022/09/22 02:43:08;;;;;;;13.67;8.30;;;;;;;-145.18;100.00;46656.50;6242290;23;20245;-74
2022/09/22 02:45:45;;;;;;;8.73;6.77;;;;;;;-145.18;100.00;46656.50;6242857;23;20222;-74
2022/09/22 02:48:43;;;;;;;16.43;9.37;;;;;;;-145.18;100.00;46660.41;6242690;23;20228;-74
2022/09/22 02:51:08;;;;;;;10.83;8.50;;;;;;;-145.18;100.00;46656.50;6236681;23;20344;-74
2022/09/22 02:53:35;;;;;;;11.33;8.40;;;;;;;-145.18;100.00;46658.44;6242495;23;20269;-74
2022/09/22 02:56:02;;;;;;;11.47;8.43;;;;;;;-145.18;100.00;46656.50;6242960;23;20004;-74
2022/09/22 02:58:27;;;;;;;13.90;9.60;;;;;;;-145.18;100.00;46658.44;6242096;23;20238;-74
2022/09/22 03:00:53;;;;;;;15.90;9.80;;;;;;;-145.18;100.00;46660.41;6242629;23;20280;-74
2022/09/22 03:03:18;;;;;;;9.63;6.83;;;;;;;-145.18;100.00;46658.44;6219231;23;20021;-74
2022/09/22 03:05:43;;;;;;;10.70;7.60;;;;;;;-145.18;100.00;46660.41;6212435;23;20433;-73
2022/09/22 03:08:09;;;;;;;10.27;6.90;;;;;;;-145.18;100.00;46658.44;6211788;23;20350;-74
2022/09/22 03:10:34;;;;;;;13.37;9.57;;;;;;;-145.18;100.00;46658.44;6212606;23;20048;-73
2022/09/22 03:13:00;;;;;;;8.80;6.93;;;;;;;-145.18;100.00;46656.50;6210459;23;20028;-73
2022/09/22 03:15:25;;;;;;;12.43;7.87;;;;;;;-145.18;100.00;46660.41;6211190;23;20015;-74
2022/09/22 03:17:51;;;;;;;8.53;7.27;;;;;;;-145.18;100.00;46658.44;6211921;23;20004;-74
2022/09/22 03:20:16;;;;;;;11.10;8.07;;;;;;;-145.18;100.00;46656.50;6212390;23;20500;-74
2022/09/22 03:22:42;;;;;;;13.03;9.60;;;;;;;-145.18;100.00;46656.50;6211931;23;20016;-73
2022/09/22 03:25:09;;;;;;;9.90;8.07;;;;;;;-145.18;100.00;46658.44;6212647;23;20051;-73
2022/09/22 03:27:35;;;;;;;10.60;8.30;;;;;;;-145.18;100.00;46654.53;6211904;23;20013;-74
2022/09/22 03:30:02;;;;;;;17.73;9.87;;;;;;;-145.18;100.00;46660.41;6212494;23;20309;-74
2022/09/22 03:32:28;;;;;;;15.03;9.13;;;;;;;-145.18;100.00;46658.44;6212019;23;20012;-73
2022/09/22 03:34:53;;;;;;;14.47;11.13;;;;;;;-145.18;100.00;46658.44;6211915;23;20293;-74
2022/09/22 03:37:18;;;;;;;14.93;9.27;;;;;;;-145.18;100.00;46654.53;6210527;23;20015;-74
2022/09/22 03:39:44;;;;;;;16.23;12.40;;;;;;;-145.18;100.00;46654.53;6212508;23;20485;-74
2022/09/22 03:42:09;;;;;;;18.67;14.90;;;;;;;-145.18;100.00;46654.53;6212187;23;20406;-74
2022/09/22 03:44:34;;;;;;;15.90;13.03;;;;;;;-145.18;100.00;46660.41;6212199;23;20338;-74
2022/09/22 03:47:00;;;;;;;16.13;11.90;;;;;;;-145.18;100.00;46658.44;6211543;23;20413;-73
2022/09/22 03:49:27;;;;;;;16.03;10.97;;;;;;;-145.18;100.00;46654.53;6212464;23;20017;-73
2022/09/22 03:51:52;;;;;;;14.43;12.47;;;;;;;-145.18;100.00;46660.41;6211562;23;20434;-74
2022/09/22 03:54:18;;;;;;;16.33;13.83;;;;;;;-145.18;100.00;46652.59;6209979;23;20231;-73
2022/09/22 03:56:44;;;;;;;13.43;11.97;;;;;;;-145.18;100.00;46660.41;6211509;23;20385;-74
2022/09/22 03:59:10;;;;;;;18.07;13.60;;;;;;;-145.18;100.00;46658.44;6211341;23;20084;-73
2022/09/22 04:01:35;;;;;;;19.50;13.87;;;;;;;-145.18;100.00;46652.59;6211378;23;20008;-74
2022/09/22 04:04:01;;;;;;;19.07;13.43;;;;;;;-145.18;100.00;46656.50;6211246;23;20235;-73
2022/09/22 04:06:26;;;;;;;17.53;13.70;;;;;;;-145.18;100.00;46656.50;6211411;23;20444;-73
2022/09/22 04:08:52;;;;;;;17.73;13.33;;;;;;;-145.18;100.00;46660.41;6209442;23;20009;-73
2022/09/22 04:11:17;;;;;;;19.13;14.20;;;;;;;-145.18;100.00;46658.44;6209905;23;20262;-73
2022/09/22 04:13:42;;;;;;;18.90;15.07;;;;;;;-145.18;100.00;46658.44;6209361;23;20060;-74
2022/09/22 04:16:08;;;;;;;20.00;15.17;;;;;;;-145.18;100.00;46654.53;6210132;23;20008;-73
2022/09/22 04:18:38;;;;;;;22.17;15.30;;;;;;;-145.18;100.00;46656.50;6212218;23;20028;-73
2022/09/22 04:21:04;;;;;;;18.83;15.37;;;;;;;-145.18;100.00;46658.44;6213440;23;20062;-73
2022/09/22 04:23:29;;;;;;;18.43;14.97;;;;;;;-145.18;100.00;46662.34;6213089;23;20234;-73
2022/09/22 04:25:55;;;;;;;20.53;15.43;;;;;;;-145.18;100.00;46660.41;6213562;23;20395;-73
2022/09/22 04:28:20;;;;;;;19.73;15.03;;;;;;;-145.18;100.00;46650.63;6213639;23;20009;-73
2022/09/22 04:30:46;;;;;;;16.57;13.90;;;;;;;-145.18;100.00;46654.53;6213311;23;20016;-73
2022/09/22 04:33:12;;;;;;;13.43;11.10;;;;;;;-145.18;100.00;46654.53;6212923;23;20074;-73
2022/09/22 04:35:37;;;;;;;22.27;17.60;;;;;;;-145.18;100.00;46656.50;6213649;23;20004;-73
2022/09/22 04:38:03;;;;;;;16.10;14.10;;;;;;;-145.18;100.00;46652.59;6212990;23;20009;-74
2022/09/22 04:40:28;;;;;;;22.10;16.87;;;;;;;-145.18;100.00;46658.44;6213785;23;20017;-73
2022/09/22 04:42:54;;;;;;;23.13;16.93;;;;;;;-145.18;100.00;46658.44;6213058;23;20449;-74
2022/09/22 04:45:20;;;;;;;21.70;15.67;;;;;;;-145.18;100.00;46656.50;6213901;23;20008;-74
2022/09/22 04:47:47;;;;;;;22.13;16.80;;;;;;;-145.18;100.00;46656.50;6213069;23;20464;-74
2022/09/22 04:50:13;;;;;;;20.17;16.90;;;;;;;-145.18;100.00;46652.59;6214093;23;20040;-74
2022/09/22 04:52:44;;;;;;;25.33;20.40;;;;;;;-145.18;100.00;46652.59;6211780;23;20699;-74
2022/09/22 04:55:10;;;;;;;29.37;20.37;;;;;;;-145.18;100.00;46654.53;6213420;23;20231;-74
2022/09/22 04:57:35;;;;;;;28.47;20.07;;;;;;;-145.18;100.00;46656.50;6212148;23;20257;-74
2022/09/22 05:00:01;;;;;;;21.53;18.23;;;;;;;-145.18;100.00;46654.53;6212401;23;20368;-73
2022/09/22 05:02:26;;;;;;;25.07;19.30;;;;;;;-145.18;100.00;46654.53;6210765;23;20063;-74
2022/09/22 05:04:52;;;;;;;25.90;19.37;;;;;;;-145.18;100.00;46654.53;6211411;23;20013;-74
2022/09/22 05:07:17;;;;;;;21.23;17.47;;;;;;;-145.18;100.00;46656.50;6213323;23;20008;-73
2022/09/22 05:09:42;;;;;;;25.10;17.83;;;;;;;-145.18;100.00;46654.53;6213454;23;20009;-73
2022/09/22 05:12:08;;;;;;;20.63;15.73;;;;;;;-145.18;100.00;46654.53;6213140;23;20092;-74
2022/09/22 05:14:34;;;;;;;20.40;16.03;;;;;;;-145.18;100.00;46654.53;6212761;23;20004;-74
2022/09/22 05:16:59;;;;;;;20.87;15.67;;;;;;;-145.18;100.00;46658.44;6213354;23;20028;-74
2022/09/22 05:19:25;;;;;;;26.07;19.97;;;;;;;-145.18;100.00;46662.34;6213499;23;20242;-74
2022/09/22 05:21:50;;;;;;;25.87;20.07;;;;;;;-145.18;100.00;46654.53;6213070;23;20004;-74
2022/09/22 05:24:15;;;;;;;21.87;17.87;;;;;;;-145.18;100.00;46656.50;6213033;23;20005;-74
2022/09/22 05:26:41;;;;;;;17.63;14.50;;;;;;;-145.18;100.00;46656.50;6213018;23;20005;-74
2022/09/22 05:29:06;;;;;;;23.47;18.50;;;;;;;-145.18;100.00;46656.50;6213065;23;20024;-74
2022/09/22 05:31:32;;;;;;;26.43;18.63;;;;;;;-145.18;100.00;46654.53;6212731;23;20017;-74
2022/09/22 05:33:57;;;;;;;20.73;16.53;;;;;;;-145.18;100.00;46652.59;6211994;23;20008;-74
2022/09/22 05:36:23;;;;;;;23.07;18.40;;;;;;;-145.18;100.00;46656.50;6213302;23;20009;-74
2022/09/22 05:38:48;;;;;;;31.33;22.07;;;;;;;-145.18;100.00;46658.44;6212606;23;20004;-74
2022/09/22 05:41:14;;;;;;;24.63;18.27;;;;;;;-145.18;100.00;46654.53;6213355;23;20004;-74
2022/09/22 05:43:39;;;;;;;23.53;18.43;;;;;;;-145.18;100.00;46660.41;6212729;23;20019;-74
2022/09/22 05:46:04;;;;;;;31.33;20.80;;;;;;;-145.18;100.00;46654.53;6211595;23;20429;-74
2022/09/22 05:48:30;;;;;;;26.10;19.10;;;;;;;-145.18;100.00;46656.50;6212892;23;20008;-74
2022/09/22 05:50:55;;;;;;;22.43;18.57;;;;;;;-145.18;100.00;46656.50;6211959;23;20016;-74
2022/09/22 05:53:20;;;;;;;28.53;21.47;;;;;;;-145.18;100.00;46656.50;6212064;23;20004;-74
2022/09/22 05:55:46;;;;;;;28.00;23.00;;;;;;;-145.18;100.00;46656.50;6213086;23;20067;-74
2022/09/22 05:58:11;;;;;;;29.83;22.17;;;;;;;-145.18;100.00;46650.63;6212507;23;20147;-74
2022/09/22 06:00:37;;;;;;;29.47;22.90;;;;;;;-145.18;100.00;46654.53;6213158;23;20430;-74
2022/09/22 06:03:04;;;;;;;30.53;23.10;;;;;;;-145.18;100.00;46652.59;6211888;23;20017;-75
2022/09/22 06:05:29;;;;;;;32.97;23.80;;;;;;;-145.18;100.00;46656.50;6213195;23;20453;-74
2022/09/22 06:08:03;;;;;;;28.17;23.17;;;;;;;-145.18;100.00;46654.53;6212467;23;20230;-74
2022/09/22 06:10:29;;;;;;;31.83;22.47;;;;;;;-145.18;100.00;46650.63;6213063;23;20004;-74
2022/09/22 06:13:00;;;;;;;28.27;21.20;;;;;;;-145.18;100.00;46654.53;6212175;23;20285;-74
2022/09/22 06:15:26;;;;;;;24.80;20.27;;;;;;;-145.18;100.00;46650.63;6212782;23;20230;-74
2022/09/22 06:17:52;;;;;;;30.90;22.03;;;;;;;-145.18;100.00;46652.59;6212118;23;20234;-74
2022/09/22 06:20:17;;;;;;;29.37;22.10;;;;;;;-145.18;100.00;46652.59;6211437;23;20245;-74
2022/09/22 06:22:43;;;;;;;27.50;22.83;;;;;;;-145.18;100.00;46652.59;6212160;23;20333;-74
2022/09/22 06:25:09;;;;;;;32.37;22.13;;;;;;;-145.18;100.00;46654.53;6212773;23;20011;-74
2022/09/22 06:27:35;;;;;;;31.60;25.23;;;;;;;-145.18;100.00;46652.59;6212263;23;20309;-74
2022/09/22 06:30:00;;;;;;;36.43;24.27;;;;;;;-145.18;100.00;46654.53;6212753;23;20492;-74
2022/09/22 06:32:26;;;;;;;37.23;23.77;;;;;;;-145.18;100.00;46652.59;6212355;23;20345;-75
2022/09/22 06:34:51;;;;;;;30.77;24.17;;;;;;;-145.18;100.00;46652.59;6212454;23;20004;-74
2022/09/22 06:37:18;;;;;;;30.40;24.50;;;;;;;-145.18;100.00;46648.69;6212616;23;20008;-74
2022/09/22 06:39:43;;;;;;;30.43;25.53;;;;;;;-145.18;100.00;46652.59;6210623;23;20042;-75
2022/09/22 06:42:09;;;;;;;32.67;26.13;;;;;;;-145.18;100.00;46654.53;6210992;23;20250;-74
2022/09/22 06:44:35;;;;;;;36.60;26.63;;;;;;;-145.18;100.00;46654.53;6212022;23;20008;-75
2022/09/22 06:47:08;;;;;;;37.33;28.17;;;;;;;-145.18;100.00;46648.69;6210772;23;20008;-74
2022/09/22 06:49:34;;;;;;;40.33;30.33;;;;;;;-145.18;100.00;46656.50;6212713;23;20043;-74
2022/09/22 06:51:59;;;;;;;42.50;30.97;;;;;;;-145.18;100.00;46646.72;6212468;23;20714;-75
2022/09/22 06:54:25;;;;;;;36.13;29.43;;;;;;;-145.18;100.00;46646.72;6212420;23;20009;-74
2022/09/22 06:56:50;;;;;;;35.27;29.77;;;;;;;-145.18;100.00;46644.78;6211964;23;20422;-75
2022/09/22 06:59:16;;;;;;;38.43;30.13;;;;;;;-145.18;100.00;46646.72;6212310;23;20338;-75
2022/09/22 07:01:43;;;;;;;38.63;30.70;;;;;;;-145.18;100.00;46646.72;6212426;23;20094;-75
2022/09/22 07:04:09;;;;;;;38.93;30.33;;;;;;;-145.18;100.00;46648.69;6212401;23;20084;-75
2022/09/22 07:06:36;;;;;;;42.67;32.03;;;;;;;-145.18;100.00;46646.72;6212524;23;20230;-75
2022/09/22 07:09:02;;;;;;;41.10;31.00;;;;;;;-145.18;100.00;46644.78;6211646;23;20236;-75
2022/09/22 07:11:28;;;;;;;44.37;33.50;;;;;;;-145.18;100.00;46646.72;6212566;23;20281;-75
2022/09/22 07:13:53;;;;;;;45.13;32.53;;;;;;;-145.18;100.00;46640.88;6211772;23;20235;-75
2022/09/22 07:16:21;;;;;;;45.93;33.57;;;;;;;-145.18;100.00;46648.69;6212688;23;20087;-75
2022/09/22 07:18:49;;;;;;;44.27;31.63;;;;;;;-145.18;100.00;46648.69;6211586;23;20012;-75
2022/09/22 07:21:20;;;;;;;38.10;29.77;;;;;;;-145.18;100.00;46646.72;6212254;23;20253;-76
2022/09/22 07:23:48;;;;;;;36.73;29.30;;;;;;;-145.18;100.00;46646.72;6211823;23;20281;-75
2022/09/22 07:26:16;;;;;;;34.80;29.50;;;;;;;-145.18;100.00;46648.69;6212746;23;20218;-75
2022/09/22 07:28:42;;;;;;;35.47;28.60;;;;;;;-145.18;100.00;46650.63;6212417;23;20297;-76
2022/09/22 07:31:10;;;;;;;34.37;26.70;;;;;;;-145.18;100.00;46652.59;6212188;23;20254;-76
2022/09/22 07:33:38;;;;;;;33.20;26.40;;;;;;;-145.18;100.00;46650.63;6212041;23;20692;-75
2022/09/22 07:36:10;;;;;;;31.33;24.77;;;;;;;-145.18;100.00;46658.44;6212185;23;20249;-75
2022/09/22 07:38:37;;;;;;;37.20;27.53;;;;;;;-145.18;100.00;46652.59;6212112;23;20226;-76
2022/09/22 07:41:14;;;;;;;32.10;25.43;;;;;;;-145.18;100.00;46656.50;6211838;23;20242;-76
2022/09/22 07:43:40;;;;;;;33.30;23.87;;;;;;;-145.18;100.00;46654.53;6211950;23;20226;-75
2022/09/22 07:46:07;;;;;;;33.63;23.63;;;;;;;-145.18;100.00;46658.44;6212396;23;20344;-76
2022/09/22 07:48:35;;;;;;;28.97;22.97;;;;;;;-145.18;100.00;46662.34;6211938;23;20237;-76
2022/09/22 07:51:18;;;;;;;29.13;23.20;;;;;;;-145.18;100.00;46658.44;6212179;23;20016;-76
2022/09/22 07:53:47;;;;;;;29.70;22.80;;;;;;;-145.18;100.00;46668.22;6213077;23;20214;-76
2022/09/22 07:56:15;;;;;;;29.13;22.83;;;;;;;-145.18;100.00;46666.25;6214204;23;20075;-76
2022/09/22 07:58:46;;;;;;;26.33;21.33;;;;;;;-145.18;100.00;46672.13;6213985;23;20058;-76
2022/09/22 08:01:12;;;;;;;28.23;21.30;;;;;;;-145.18;100.00;46664.31;6214192;23;20059;-76
2022/09/22 08:03:38;;;;;;;26.87;20.77;;;;;;;-145.18;100.00;46670.16;6213317;23;20024;-76
2022/09/22 08:06:09;;;;;;;25.77;19.80;;;;;;;-145.18;100.00;46670.16;6213918;23;20016;-76
2022/09/22 08:08:47;;;;;;;27.70;20.47;;;;;;;-145.18;100.00;46670.16;6214077;23;20000;-76
2022/09/22 08:11:16;;;;;;;31.60;21.40;;;;;;;-145.18;100.00;46668.22;6214034;23;20040;-76
2022/09/22 08:13:47;;;;;;;29.27;19.77;;;;;;;-145.18;100.00;46668.22;6211926;23;20011;-76
2022/09/22 08:16:12;;;;;;;22.87;18.43;;;;;;;-145.18;100.00;46648.69;6214263;23;20009;-76
2022/09/22 08:18:38;;;;;;;25.60;19.37;;;;;;;-145.18;100.00;46586.16;6213554;23;20008;-77
2022/09/22 08:21:07;;;;;;;23.27;17.23;;;;;;;-145.18;100.00;46558.81;6213614;23;20405;-77
2022/09/22 08:23:33;;;;;;;28.13;19.20;;;;;;;-145.18;100.00;46556.88;6213280;23;20035;-77
2022/09/22 08:26:04;;;;;;;27.90;19.53;;;;;;;-145.18;100.00;46566.63;6214012;23;20000;-76
2022/09/22 08:28:30;;;;;;;22.77;15.80;;;;;;;-145.18;100.00;46556.88;6213433;23;20009;-76
2022/09/22 08:30:57;;;;;;;21.20;15.80;;;;;;;-145.18;100.00;46547.09;6213874;23;20008;-77
2022/09/22 08:33:23;;;;;;;20.97;15.93;;;;;;;-145.18;100.00;46556.88;6213050;23;20099;-77
2022/09/22 08:35:53;;;;;;;21.53;16.00;;;;;;;-145.18;100.00;46562.72;6213845;23;20043;-77
2022/09/22 08:38:21;;;;;;;23.70;16.57;;;;;;;-145.18;100.00;46562.72;6213398;23;20135;-77
2022/09/22 08:40:58;;;;;;;22.93;17.27;;;;;;;-145.18;100.00;46558.81;6214062;23;20031;-77
2022/09/22 08:43:24;;;;;;;20.37;15.20;;;;;;;-145.18;100.00;46551.00;6213866;23;20001;-77
2022/09/22 08:45:50;;;;;;;24.30;18.17;;;;;;;-145.18;100.00;46558.81;6213591;23;20354;-77
2022/09/22 08:53:57;;;;;;;21.00;16.30;;;;;;;-145.18;100.00;46564.69;6212954;23;20016;-77
2022/09/22 08:56:29;;;;;;;22.90;16.60;;;;;;;-145.18;100.00;46572.50;6213655;23;20009;-77
2022/09/22 08:59:17;;;;;;;18.23;15.47;;;;;;;-145.18;100.00;46574.44;6213134;23;20060;-77
2022/09/22 09:01:48;;;;;;;23.73;16.30;;;;;;;-145.18;100.00;46570.53;6212753;23;20009;-77
2022/09/22 09:04:51;;;;;;;21.80;14.50;;;;;;;-145.18;100.00;46570.53;6213228;23;20010;-77
2022/09/22 09:07:22;;;;;;;25.27;14.87;;;;;;;-145.18;100.00;46590.06;6213899;23;20012;-77
2022/09/22 09:09:53;;;;;;;20.13;14.80;;;;;;;-145.18;100.00;46584.22;6213078;23;20008;-78
2022/09/22 09:12:33;;;;;;;15.60;11.37;;;;;;;-145.18;100.00;46584.22;6213571;23;20088;-77
2022/09/22 09:15:07;;;;;;;12.33;10.27;;;;;;;-145.18;100.00;46605.69;6212681;23;20001;-78
2022/09/22 09:17:36;;;;;;;15.00;11.60;;;;;;;-145.18;100.00;46605.69;6213750;23;20007;-77
2022/09/22 09:20:18;;;;;;;14.03;11.67;;;;;;;-145.18;100.00;46601.78;6212584;23;20008;-77
2022/09/22 09:23:09;;;;;;;16.60;12.53;;;;;;;-145.18;100.00;46609.59;6213498;23;20326;-77
2022/09/22 09:25:39;;;;;;;12.93;10.23;;;;;;;-145.18;100.00;46609.59;6213602;23;20067;-77
2022/09/22 09:28:41;;;;;;;18.03;10.17;;;;;;;-145.18;100.00;46652.59;6212543;23;19997;-78
2022/09/22 09:31:38;;;;;;;13.37;9.67;;;;;;;-145.18;100.00;46668.22;6180168;23;20008;-77
2022/09/22 09:34:13;;;;;;;10.67;9.03;;;;;;;-145.18;100.00;46668.22;6212747;23;20005;-77
2022/09/22 09:36:42;;;;;;;12.30;8.63;;;;;;;-145.18;100.00;46683.84;6213702;23;20004;-77
2022/09/22 09:39:23;;;;;;;10.10;9.00;;;;;;;-145.18;100.00;46722.91;6212683;23;20005;-77
2022/09/22 09:41:49;;;;;;;15.00;9.37;;;;;;;-145.18;100.00;46683.84;6213001;23;20039;-77
2022/09/22 09:44:23;;;;;;;16.00;10.40;;;;;;;-145.18;100.00;46687.75;6212711;23;20000;-78
2022/09/22 09:47:07;;;;;;;13.63;10.30;;;;;;;-145.18;100.00;46705.31;6213229;23;20399;-77
2022/09/22 09:49:33;;;;;;;10.87;8.83;;;;;;;-145.18;100.00;46736.56;6212670;23;20004;-77
2022/09/22 09:52:05;;;;;;;11.03;9.17;;;;;;;-145.18;100.00;46744.38;6212955;23;20015;-78
2022/09/22 09:54:31;;;;;;;9.83;7.97;;;;;;;-145.18;100.00;46910.44;6212453;23;20076;-78
2022/09/22 09:57:03;;;;;;;12.90;8.80;;;;;;;-145.18;100.00;47269.88;6213070;23;20489;-78
2022/09/22 10:02:16;;;;;;;12.00;7.97;;;;;;;-145.18;100.00;47256.22;6212792;23;20086;-78
2022/09/22 10:04:49;;;;;;;10.13;7.73;;;;;;;-145.18;100.00;47273.78;6211149;23;20016;-78
2022/09/22 10:07:17;;;;;;;14.13;7.90;;;;;;;-145.18;100.00;47265.97;6213058;23;20390;-77
2022/09/22 10:09:43;;;;;;;11.90;8.10;;;;;;;-145.18;100.00;47246.44;6212586;23;20000;-77
2022/09/22 10:12:27;;;;;;;9.17;6.93;;;;;;;-145.18;100.00;47211.28;6212714;23;20016;-78
2022/09/22 10:14:59;;;;;;;10.37;5.83;;;;;;;-145.18;100.00;47215.19;6212189;23;20366;-77
2022/09/22 10:17:30;;;;;;;8.93;5.40;;;;;;;-145.18;100.00;47203.47;6212631;23;20472;-78
2022/09/22 10:20:15;;;;;;;7.30;4.50;;;;;;;-145.18;100.00;47199.56;6212244;23;20036;-77
2022/09/22 10:22:41;;;;;;;8.47;4.17;;;;;;;-145.18;100.00;47178.06;6212949;23;20571;-77
2022/09/22 10:25:27;;;;;;;6.97;4.50;;;;;;;-145.18;100.00;47185.88;6212580;23;20028;-77
2022/09/22 10:28:12;;;;;;;8.57;4.57;;;;;;;-145.18;100.00;47164.38;6212608;23;20036;-77
2022/09/22 10:30:38;;;;;;;8.30;3.93;;;;;;;-145.18;100.00;47172.19;6212478;23;20016;-77
2022/09/22 10:33:13;;;;;;;10.33;4.43;;;;;;;-145.18;100.00;47162.44;6212412;23;20005;-77
2022/09/22 10:35:40;;;;;;;8.67;4.30;;;;;;;-145.18;100.00;47174.16;6212891;23;20001;-77
2022/09/22 10:38:14;;;;;;;6.70;3.10;;;;;;;-145.18;100.00;47174.16;6212246;23;20321;-77
2022/09/22 10:40:43;;;;;;;4.70;2.97;;;;;;;-145.18;100.00;47152.66;6212771;23;20001;-77
2022/09/22 10:43:50;;;;;;;6.73;2.93;;;;;;;-145.18;100.00;47156.56;6212421;23;20009;-77
2022/09/22 10:46:34;;;;;;;;;;;;;;;-145.18;100.00;47150.72;6212577;23;20019;-77
2022/09/22 10:49:08;;;;;;;6.20;2.83;;;;;;;-145.18;100.00;47146.81;6211882;23;19918;-77
2022/09/22 10:52:00;;;;;;;3.73;3.00;;;;;;;-145.18;100.00;47158.53;6213091;23;20004;-77
2022/09/22 10:54:54;;;;;;;6.50;4.50;;;;;;;-145.18;100.00;47144.84;6211633;23;20004;-77
2022/09/22 10:57:31;;;;;;;5.43;4.07;;;;;;;-145.18;100.00;47131.19;6212692;23;20506;-77
2022/09/22 11:00:18;;;;;;;7.20;4.00;;;;;;;-145.18;100.00;47137.03;6211798;23;20095;-77
2022/09/22 11:02:55;;;;;;;4.93;3.97;;;;;;;-145.18;100.00;47142.91;6212408;23;20009;-77
2022/09/22 11:12:16;;;;;;;7.70;3.33;;;;;;;-145.18;100.00;47129.22;6212128;23;20023;-77
2022/09/22 11:14:54;;;;;;;8.30;4.93;;;;;;;-145.18;100.00;47125.31;6212264;23;20333;-77
2022/09/22 11:17:44;;;;;;;8.47;4.87;;;;;;;-145.18;100.00;47133.13;6212754;23;20023;-77
2022/09/22 11:20:31;;;;;;;7.50;3.70;;;;;;;-145.18;100.00;47131.19;6211761;23;20015;-77
2022/09/22 11:23:15;;;;;;;7.80;3.97;;;;;;;-145.18;100.00;47121.41;6211907;23;20032;-77
2022/09/22 11:26:00;;;;;;;5.03;3.57;;;;;;;-145.18;100.00;47111.66;6212756;23;20015;-77
2022/09/22 11:28:47;;;;;;;5.40;3.23;;;;;;;-145.18;100.00;47135.09;6213882;23;20007;-77